createdAt,value
2018-02-02T00:00:48.108Z,3.00
2018-02-02T00:03:15.372Z,3.00
2018-02-02T00:05:43.350Z,3.00
2018-02-02T00:08:11.858Z,3.00
2018-02-02T00:10:39.259Z,3.00
2018-02-02T00:13:06.547Z,3.00
2018-02-02T00:15:33.925Z,3.00
2018-02-02T00:18:01.164Z,3.00
2018-02-02T00:20:29.969Z,3.00
2018-02-02T00:22:58.094Z,3.00
2018-02-02T00:25:25.176Z,3.00
2018-02-02T00:27:53.024Z,3.00
2018-02-02T00:30:20.046Z,2.90
2018-02-02T00:32:47.362Z,2.90
2018-02-02T00:35:14.619Z,2.90
2018-02-02T00:37:41.698Z,2.90
2018-02-02T00:40:09.184Z,2.90
2018-02-02T00:42:36.892Z,2.90
2018-02-02T00:45:04.167Z,2.90
2018-02-02T00:47:32.123Z,2.90
2018-02-02T00:49:59.079Z,2.90
2018-02-02T00:52:26.043Z,3.00
2018-02-02T00:54:53.149Z,3.00
2018-02-02T00:57:20.824Z,3.00
2018-02-02T00:59:47.876Z,3.00
2018-02-02T01:02:14.988Z,3.00
2018-02-02T01:04:41.989Z,3.00
2018-02-02T01:07:09.007Z,3.00
2018-02-02T01:09:36.013Z,3.00
2018-02-02T01:12:03.261Z,3.00
2018-02-02T01:14:30.369Z,3.00
2018-02-02T01:16:57.386Z,3.00
2018-02-02T01:19:24.444Z,3.00
2018-02-02T01:21:54.089Z,3.00
2018-02-02T01:24:22.862Z,3.10
2018-02-02T01:26:52.641Z,3.00
2018-02-02T01:29:21.517Z,3.00
2018-02-02T01:31:50.100Z,3.00
2018-02-02T01:34:17.219Z,3.00
2018-02-02T01:36:44.423Z,3.00
2018-02-02T01:39:12.430Z,3.10
2018-02-02T01:41:39.456Z,3.00
2018-02-02T01:44:06.480Z,3.10
2018-02-02T01:46:37.913Z,3.10
2018-02-02T01:49:14.319Z,3.00
2018-02-02T01:51:43.114Z,3.00
2018-02-02T01:54:13.731Z,3.10
2018-02-02T01:56:44.001Z,3.10
2018-02-02T01:59:13.407Z,3.00
2018-02-02T02:01:40.864Z,3.10
2018-02-02T02:04:08.550Z,3.10
2018-02-02T02:06:35.788Z,3.10
2018-02-02T02:09:03.597Z,3.10
2018-02-02T02:11:30.542Z,3.10
2018-02-02T02:13:57.469Z,3.10
2018-02-02T02:16:24.344Z,3.10
2018-02-02T02:18:59.004Z,3.10
2018-02-02T02:21:26.705Z,3.10
2018-02-02T02:23:53.619Z,3.10
2018-02-02T02:26:20.528Z,3.10
2018-02-02T02:28:47.423Z,3.10
2018-02-02T02:31:15.064Z,3.10
2018-02-02T02:33:41.957Z,3.10
2018-02-02T02:36:10.008Z,3.10
2018-02-02T02:38:36.914Z,3.10
2018-02-02T02:41:04.541Z,3.10
2018-02-02T02:43:31.461Z,3.10
2018-02-02T02:45:59.029Z,3.20
2018-02-02T02:48:26.668Z,3.10
2018-02-02T02:50:53.552Z,3.20
2018-02-02T02:53:20.753Z,3.10
2018-02-02T02:55:49.888Z,3.10
2018-02-02T02:58:22.308Z,3.20
2018-02-02T03:00:53.695Z,3.10
2018-02-02T03:06:02.080Z,3.00
2018-02-02T03:36:21.032Z,2.60
2018-02-02T03:38:57.513Z,2.80
2018-02-02T03:41:44.514Z,2.80
2018-02-02T03:44:25.260Z,2.70
2018-02-02T03:46:56.411Z,2.70
2018-02-02T03:49:26.742Z,2.70
2018-02-02T03:51:55.538Z,2.70
2018-02-02T03:54:22.742Z,2.50
2018-02-02T03:56:49.922Z,2.60
2018-02-02T03:59:17.196Z,2.70
2018-02-02T04:01:44.752Z,2.70
2018-02-02T04:04:12.940Z,2.80
2018-02-02T04:06:40.736Z,2.70
2018-02-02T04:09:13.367Z,2.70
2018-02-02T04:11:45.348Z,2.70
2018-02-02T04:14:18.079Z,2.60
2018-02-02T04:17:08.468Z,2.50
2018-02-02T04:19:35.830Z,2.70
2018-02-02T04:22:03.871Z,2.70
2018-02-02T04:24:31.769Z,2.60
2018-02-02T04:26:58.871Z,2.60
2018-02-02T04:29:26.084Z,2.70
2018-02-02T04:31:53.121Z,2.70
2018-02-02T04:34:20.036Z,2.70
2018-02-02T04:36:50.610Z,2.50
2018-02-02T04:39:17.765Z,2.40
2018-02-02T04:41:44.905Z,2.50
2018-02-02T04:44:13.000Z,2.70
2018-02-02T04:46:40.178Z,2.70
2018-02-02T04:49:07.160Z,2.80
2018-02-02T04:51:34.828Z,2.60
2018-02-02T04:54:02.031Z,2.50
2018-02-02T04:56:29.040Z,2.60
2018-02-02T04:58:56.701Z,2.60
2018-02-02T05:01:23.744Z,2.60
2018-02-02T05:03:50.799Z,2.60
2018-02-02T05:06:17.863Z,2.60
2018-02-02T05:08:45.008Z,2.70
2018-02-02T05:11:12.028Z,2.80
2018-02-02T05:13:40.348Z,2.70
2018-02-02T05:16:09.313Z,2.70
2018-02-02T05:18:37.651Z,2.70
2018-02-02T05:21:05.647Z,2.80
2018-02-02T05:23:33.849Z,2.80
2018-02-02T05:26:00.956Z,2.80
2018-02-02T05:28:28.132Z,2.80
2018-02-02T05:30:55.142Z,2.80
2018-02-02T05:33:22.229Z,2.80
2018-02-02T05:35:49.492Z,2.80
2018-02-02T05:38:16.488Z,2.80
2018-02-02T05:40:43.577Z,2.80
2018-02-02T05:43:15.777Z,2.90
2018-02-02T05:45:43.689Z,2.90
2018-02-02T05:48:10.718Z,2.90
2018-02-02T05:50:37.713Z,3.00
2018-02-02T05:53:04.731Z,3.00
2018-02-02T05:55:31.775Z,3.00
2018-02-02T05:57:59.489Z,3.00
2018-02-02T06:00:28.095Z,3.00
2018-02-02T06:02:55.325Z,3.00
2018-02-02T06:05:22.404Z,3.00
2018-02-02T06:07:49.749Z,3.00
2018-02-02T06:10:16.905Z,3.10
2018-02-02T06:12:44.068Z,3.00
2018-02-02T06:15:11.162Z,3.00
2018-02-02T06:17:38.374Z,3.10
2018-02-02T06:20:05.855Z,3.10
2018-02-02T06:22:34.984Z,3.10
2018-02-02T06:25:03.217Z,3.10
2018-02-02T06:27:30.854Z,3.10
2018-02-02T06:29:59.512Z,3.10
2018-02-02T06:32:26.713Z,3.10
2018-02-02T06:34:54.751Z,3.20
2018-02-02T06:37:22.995Z,3.20
2018-02-02T06:39:50.958Z,3.20
2018-02-02T06:42:19.262Z,3.30
2018-02-02T06:44:46.315Z,3.20
2018-02-02T06:47:13.707Z,3.30
2018-02-02T06:49:40.895Z,3.20
2018-02-02T06:52:08.279Z,3.30
2018-02-02T06:54:35.745Z,3.30
2018-02-02T06:57:03.205Z,3.30
2018-02-02T06:59:30.451Z,3.30
2018-02-02T07:01:58.612Z,3.30
2018-02-02T07:04:25.850Z,3.30
2018-02-02T07:06:53.090Z,3.30
2018-02-02T07:09:20.920Z,3.30
2018-02-02T07:11:48.015Z,3.30
2018-02-02T07:14:15.109Z,3.30
2018-02-02T07:16:42.310Z,3.40
2018-02-02T07:19:10.272Z,3.40
2018-02-02T07:21:37.598Z,3.30
2018-02-02T07:24:04.782Z,3.40
2018-02-02T07:26:33.047Z,3.40
2018-02-02T07:28:59.973Z,3.40
2018-02-02T07:31:26.889Z,3.40
2018-02-02T07:33:53.768Z,3.40
2018-02-02T07:36:21.364Z,3.50
2018-02-02T07:38:48.247Z,3.40
2018-02-02T07:41:15.110Z,3.40
2018-02-02T07:43:42.734Z,3.40
2018-02-02T07:46:09.600Z,3.40
2018-02-02T07:48:37.233Z,3.40
2018-02-02T07:51:04.943Z,3.40
2018-02-02T07:53:31.896Z,3.40
2018-02-02T07:55:58.783Z,3.40
2018-02-02T07:58:25.612Z,3.40
2018-02-02T08:32:17.425Z,3.60
2018-02-02T08:34:44.334Z,3.50
2018-02-02T08:37:11.258Z,3.60
2018-02-02T08:39:38.170Z,3.60
2018-02-02T08:42:05.071Z,3.60
2018-02-02T08:44:32.698Z,3.60
2018-02-02T08:47:02.334Z,3.60
2018-02-02T09:32:01.404Z,3.60
2018-02-02T09:34:31.610Z,3.60
2018-02-02T09:40:16.533Z,3.50
2018-02-02T09:42:43.623Z,3.50
2018-02-02T09:45:10.866Z,3.60
2018-02-02T09:47:38.450Z,3.60
2018-02-02T09:50:05.419Z,3.60
2018-02-02T09:52:32.679Z,3.60
2018-02-02T09:55:00.105Z,3.60
2018-02-02T09:57:28.525Z,3.60
2018-02-02T09:59:55.710Z,3.60
2018-02-02T10:02:23.080Z,3.50
2018-02-02T10:04:53.536Z,3.60
2018-02-02T10:07:22.878Z,3.50
2018-02-02T10:09:50.872Z,3.50
2018-02-02T10:12:18.978Z,3.50
2018-02-02T10:14:49.296Z,3.50
2018-02-02T10:17:22.898Z,3.50
2018-02-02T10:19:52.039Z,3.60
2018-02-02T10:22:20.841Z,3.60
2018-02-02T10:24:48.904Z,3.70
2018-02-02T10:27:16.985Z,3.60
2018-02-02T10:29:44.517Z,3.60
2018-02-02T10:32:17.212Z,3.50
2018-02-02T10:34:44.553Z,3.60
2018-02-02T10:37:12.231Z,3.60
2018-02-02T10:39:39.099Z,3.60
2018-02-02T10:42:05.978Z,3.60
2018-02-02T10:44:32.835Z,3.60
2018-02-02T10:46:59.828Z,3.60
2018-02-02T10:49:26.643Z,3.70
2018-02-02T10:51:53.614Z,3.70
2018-02-02T10:54:20.522Z,3.70
2018-02-02T10:56:47.477Z,3.70
2018-02-02T10:59:14.464Z,3.60
2018-02-02T11:01:41.425Z,3.70
2018-02-02T11:04:09.356Z,3.60
2018-02-02T11:06:36.220Z,3.60
2018-02-02T11:09:04.015Z,3.60
2018-02-02T11:11:30.904Z,3.60
2018-02-02T11:13:57.745Z,3.70
2018-02-02T11:16:25.381Z,3.60
2018-02-02T11:18:52.308Z,3.60
2018-02-02T11:21:19.188Z,3.70
2018-02-02T11:23:46.038Z,3.60
2018-02-02T11:26:12.888Z,3.70
2018-02-02T11:28:39.710Z,3.70
2018-02-02T11:31:06.564Z,3.70
2018-02-02T11:33:33.437Z,3.70
2018-02-02T11:36:00.347Z,3.70
2018-02-02T11:38:27.211Z,3.80
2018-02-02T11:40:54.056Z,3.80
2018-02-02T11:43:20.943Z,3.80
2018-02-02T11:45:47.789Z,3.80
2018-02-02T11:48:14.622Z,3.90
2018-02-02T11:50:42.204Z,3.90
2018-02-02T11:53:09.063Z,3.90
2018-02-02T11:55:36.759Z,3.90
2018-02-02T11:58:03.642Z,3.90
2018-02-02T12:00:30.557Z,3.90
2018-02-02T12:18:57.668Z,3.90
2018-02-02T12:36:03.545Z,4.10
2018-02-02T12:38:40.917Z,4.20
2018-02-02T12:41:48.112Z,4.20
2018-02-02T12:53:52.884Z,4.30
2018-02-02T12:56:20.415Z,4.40
2018-02-02T13:02:09.043Z,4.40
2018-02-02T13:07:50.497Z,4.50
2018-02-02T13:10:44.390Z,4.50
2018-02-02T13:13:43.503Z,4.60
2018-02-02T13:37:54.463Z,4.50
2018-02-02T13:47:52.018Z,4.50
2018-02-02T13:59:47.834Z,4.50
2018-02-02T14:14:53.106Z,4.60
2018-02-02T15:12:00.990Z,4.80
2018-02-02T15:21:09.289Z,4.80
2018-02-02T15:39:35.306Z,4.60
2018-02-02T15:42:20.047Z,4.50
2018-02-02T15:44:53.862Z,4.50
2018-02-02T15:47:22.285Z,4.50
2018-02-02T17:25:56.543Z,4.20
2018-02-02T17:28:29.750Z,4.20
2018-02-02T17:31:08.014Z,4.10
2018-02-02T17:36:26.040Z,4.10
2018-02-02T17:39:00.581Z,4.10
2018-02-02T17:41:30.484Z,4.00
2018-02-02T17:43:58.321Z,3.90
2018-02-02T17:46:26.212Z,3.90
2018-02-02T17:49:17.038Z,3.80
2018-02-02T17:51:54.062Z,3.80
2018-02-02T17:54:25.321Z,3.90
2018-02-02T17:57:01.495Z,3.90
2018-02-02T18:07:21.042Z,4.00
2018-02-02T18:13:15.433Z,3.90
2018-02-02T18:15:52.901Z,3.80
2018-02-02T18:18:26.654Z,3.80
2018-02-02T18:21:07.885Z,3.80
2018-02-02T18:26:28.206Z,3.80
2018-02-02T19:32:02.080Z,4.00
2018-02-02T19:34:31.215Z,4.00
2018-02-02T19:37:00.125Z,4.10
2018-02-02T19:39:29.188Z,4.10
2018-02-02T19:41:59.050Z,3.90
2018-02-02T19:44:27.961Z,3.90
2018-02-02T19:46:56.914Z,3.90
2018-02-02T19:49:26.257Z,4.00
2018-02-02T19:51:55.197Z,4.00
2018-02-02T19:54:24.115Z,4.10
2018-02-02T19:56:53.147Z,4.10
2018-02-02T19:59:22.069Z,4.00
2018-02-02T20:01:50.969Z,4.00
2018-02-02T20:04:19.886Z,4.00
2018-02-02T20:06:48.904Z,4.10
2018-02-02T20:09:17.907Z,4.10
2018-02-02T20:11:46.941Z,4.10
2018-02-02T20:14:17.553Z,4.20
2018-02-02T20:16:46.459Z,4.20
2018-02-02T20:19:15.314Z,4.20
2018-02-02T20:21:44.940Z,4.00
2018-02-02T20:24:14.041Z,4.00
2018-02-02T20:26:42.837Z,4.00
2018-02-02T20:29:11.833Z,4.00
2018-02-02T20:31:40.692Z,4.00
2018-02-02T20:34:10.268Z,3.90
2018-02-02T20:36:39.069Z,3.90
2018-02-02T20:39:08.906Z,4.00
2018-02-02T20:41:37.677Z,3.90
2018-02-02T20:44:07.336Z,3.90
2018-02-02T20:46:35.997Z,3.90
2018-02-02T20:49:04.655Z,3.90
2018-02-02T20:51:33.024Z,3.90
2018-02-02T20:54:01.928Z,3.90
2018-02-02T20:56:30.813Z,4.00
2018-02-02T20:59:00.120Z,3.90
2018-02-02T21:01:29.341Z,3.90
2018-02-02T21:03:57.142Z,3.80
2018-02-02T21:06:27.119Z,3.90
2018-02-02T21:08:56.655Z,3.80
2018-02-02T21:11:25.437Z,3.80
2018-02-02T21:13:54.420Z,3.80
2018-02-02T21:16:23.374Z,3.80
2018-02-02T21:18:51.438Z,3.70
2018-02-02T21:21:19.904Z,3.80
2018-02-02T21:23:47.099Z,3.90
2018-02-02T21:26:15.884Z,3.90
2018-02-02T21:28:44.463Z,3.90
2018-02-02T21:31:14.359Z,3.80
2018-02-02T21:34:04.815Z,3.70
2018-02-02T21:36:33.546Z,3.70
2018-02-02T21:39:01.581Z,3.70
2018-02-02T21:41:28.919Z,3.90
2018-02-02T21:43:57.157Z,3.80
2018-02-02T21:46:25.377Z,3.70
2018-02-02T21:48:53.131Z,3.70
2018-02-02T21:51:21.509Z,3.70
2018-02-02T21:53:49.422Z,3.70
2018-02-02T21:56:17.968Z,3.70
2018-02-02T21:58:45.628Z,3.70
2018-02-02T22:01:14.052Z,3.70
2018-02-02T22:03:41.901Z,3.60
2018-02-02T22:06:09.747Z,3.70
2018-02-02T22:08:36.648Z,3.70
2018-02-02T22:11:03.842Z,3.70
2018-02-02T22:13:32.249Z,3.60
2018-02-02T22:15:59.918Z,3.60
2018-02-02T22:18:27.478Z,3.60
2018-02-02T22:20:55.626Z,3.60
2018-02-02T22:23:22.941Z,3.60
2018-02-02T22:25:49.983Z,3.60
2018-02-02T22:28:16.856Z,3.60
2018-02-02T22:30:43.779Z,3.60
2018-02-02T22:33:10.799Z,3.60
2018-02-02T22:35:38.755Z,3.60
2018-02-02T22:38:07.731Z,3.50
2018-02-02T22:40:34.804Z,3.50
2018-02-02T22:43:01.926Z,3.50
2018-02-02T22:45:29.673Z,3.50
2018-02-02T22:47:57.314Z,3.40
2018-02-02T22:50:25.104Z,3.50
2018-02-02T22:52:53.003Z,3.40
2018-02-02T22:55:20.851Z,3.30
2018-02-02T22:57:48.712Z,3.40
2018-02-02T23:00:16.829Z,3.40
2018-02-02T23:02:44.696Z,3.30
2018-02-02T23:05:13.187Z,3.20
2018-02-02T23:07:42.793Z,3.20
2018-02-02T23:10:10.727Z,3.20
2018-02-02T23:12:39.351Z,3.40
2018-02-02T23:15:07.118Z,3.40
2018-02-02T23:17:35.025Z,3.20
